< Typhoon 197308 1973 Season Typhoon 197310 >
Typhoon 197309 (HOPE)
General InformationTrack Information on Google Maps || Disaster Info.ResourceGoogle EarthGE AnimationAtom FeedGeoJSON
Detalied Best Track (Time Zone = UTC)
Year Month Day Hour Lat. Long. Pressure (hPa) Wind (kt) Class Image Chart
1973 8 8 18 26.0 157.0 1010 0 2 -- Chart
1973 8 9 00 26.0 156.0 1010 0 2 -- Chart
1973 8 9 06 26.2 155.0 1010 0 2 -- Chart
1973 8 9 12 26.5 154.0 1010 0 2 -- Chart
1973 8 9 18 27.0 153.0 1000 0 2 -- Chart
1973 8 10 00 27.5 152.0 998 0 9 -- Chart
1973 8 10 06 28.2 151.5 1002 0 9 -- Chart
1973 8 10 12 28.8 150.9 1006 0 9 -- Chart
1973 8 10 18 29.5 150.5 1002 0 9 -- Chart
1973 8 11 00 30.3 149.7 1000 0 9 -- Chart
1973 8 11 06 30.3 149.0 1000 0 9 -- Chart
1973 8 11 12 31.0 148.2 1000 0 9 -- Chart
1973 8 11 18 31.4 147.2 1000 0 9 -- Chart
1973 8 12 00 31.6 146.2 1000 0 9 -- Chart
1973 8 12 06 32.2 144.9 1002 0 9 -- Chart
1973 8 12 12 33.0 143.5 1008 0 2 -- Chart
1973 8 12 18 34.0 143.2 1008 0 2 -- Chart
1973 8 13 00 35.0 142.9 1010 0 2 -- Chart
1973 8 13 06 36.0 142.5 1010 0 2 -- Chart
1973 8 13 12 37.0 142.0 1012 0 2 -- Chart
Japan Meteorological Agency Best Track Data | Correction Date : 1989-06-01
< Typhoon 197308 1973 Season Typhoon 197310 >

Help